sensor_id;sensor_type;location;lat;lon;timestamp;P1;durP1;ratioP1;P2;durP2;ratioP2
42226;SDS011;27892;52.378;13.122;2023-07-30T00:01:32;1.50;;;1.50;;
42226;SDS011;27892;52.378;13.122;2023-07-30T00:03:58;1.50;;;1.50;;
42226;SDS011;27892;52.378;13.122;2023-07-30T00:06:24;1.70;;;1.60;;
42226;SDS011;27892;52.378;13.122;2023-07-30T00:08:50;1.42;;;1.42;;
42226;SDS011;27892;52.378;13.122;2023-07-30T00:11:15;1.40;;;1.40;;
42226;SDS011;27892;52.378;13.122;2023-07-30T00:13:41;1.80;;;1.70;;
42226;SDS011;27892;52.378;13.122;2023-07-30T00:16:07;1.70;;;1.60;;
42226;SDS011;27892;52.378;13.122;2023-07-30T00:18:32;1.85;;;1.75;;
42226;SDS011;27892;52.378;13.122;2023-07-30T00:20:58;2.20;;;2.10;;
42226;SDS011;27892;52.378;13.122;2023-07-30T00:23:24;1.70;;;1.60;;
42226;SDS011;27892;52.378;13.122;2023-07-30T00:25:49;1.50;;;1.50;;
42226;SDS011;27892;52.378;13.122;2023-07-30T00:28:15;1.90;;;1.80;;
42226;SDS011;27892;52.378;13.122;2023-07-30T00:30:41;1.70;;;1.60;;
42226;SDS011;27892;52.378;13.122;2023-07-30T00:33:06;1.90;;;1.80;;
42226;SDS011;27892;52.378;13.122;2023-07-30T00:35:32;1.50;;;1.50;;
42226;SDS011;27892;52.378;13.122;2023-07-30T00:37:57;1.75;;;1.65;;
42226;SDS011;27892;52.378;13.122;2023-07-30T00:40:23;1.80;;;1.70;;
42226;SDS011;27892;52.378;13.122;2023-07-30T00:42:49;1.63;;;1.52;;
42226;SDS011;27892;52.378;13.122;2023-07-30T00:45:14;1.75;;;1.65;;
42226;SDS011;27892;52.378;13.122;2023-07-30T00:47:40;1.63;;;1.52;;
42226;SDS011;27892;52.378;13.122;2023-07-30T00:50:07;1.70;;;1.60;;
42226;SDS011;27892;52.378;13.122;2023-07-30T00:52:33;1.90;;;1.80;;
42226;SDS011;27892;52.378;13.122;2023-07-30T00:55:01;1.80;;;1.70;;
42226;SDS011;27892;52.378;13.122;2023-07-30T00:57:28;1.80;;;1.70;;
42226;SDS011;27892;52.378;13.122;2023-07-30T00:59:54;1.73;;;1.63;;
42226;SDS011;27892;52.378;13.122;2023-07-30T01:02:21;1.48;;;1.45;;
42226;SDS011;27892;52.378;13.122;2023-07-30T01:04:46;2.03;;;1.93;;
42226;SDS011;27892;52.378;13.122;2023-07-30T01:07:12;2.00;;;1.90;;
42226;SDS011;27892;52.378;13.122;2023-07-30T01:09:38;2.30;;;2.20;;
42226;SDS011;27892;52.378;13.122;2023-07-30T01:12:04;2.30;;;2.20;;
42226;SDS011;27892;52.378;13.122;2023-07-30T01:14:31;2.10;;;2.00;;
42226;SDS011;27892;52.378;13.122;2023-07-30T01:16:58;2.20;;;2.10;;
42226;SDS011;27892;52.378;13.122;2023-07-30T01:19:23;2.25;;;2.15;;
42226;SDS011;27892;52.378;13.122;2023-07-30T01:21:49;1.90;;;1.80;;
42226;SDS011;27892;52.378;13.122;2023-07-30T01:24:15;1.93;;;1.83;;
42226;SDS011;27892;52.378;13.122;2023-07-30T01:26:44;2.20;;;2.10;;
42226;SDS011;27892;52.378;13.122;2023-07-30T01:29:21;2.00;;;1.90;;
42226;SDS011;27892;52.378;13.122;2023-07-30T01:31:52;2.40;;;2.20;;
42226;SDS011;27892;52.378;13.122;2023-07-30T01:34:23;2.57;;;2.37;;
42226;SDS011;27892;52.378;13.122;2023-07-30T01:36:52;2.37;;;2.27;;
42226;SDS011;27892;52.378;13.122;2023-07-30T01:39:19;2.30;;;2.20;;
42226;SDS011;27892;52.378;13.122;2023-07-30T01:41:45;2.43;;;2.33;;
42226;SDS011;27892;52.378;13.122;2023-07-30T01:44:11;2.10;;;2.00;;
42226;SDS011;27892;52.378;13.122;2023-07-30T01:46:36;1.93;;;1.83;;
42226;SDS011;27892;52.378;13.122;2023-07-30T01:49:02;2.30;;;2.20;;
42226;SDS011;27892;52.378;13.122;2023-07-30T01:51:28;2.20;;;2.10;;
42226;SDS011;27892;52.378;13.122;2023-07-30T01:53:54;1.90;;;1.80;;
42226;SDS011;27892;52.378;13.122;2023-07-30T01:56:19;1.73;;;1.63;;
42226;SDS011;27892;52.378;13.122;2023-07-30T01:58:45;1.70;;;1.60;;
42226;SDS011;27892;52.378;13.122;2023-07-30T02:01:11;1.80;;;1.70;;
42226;SDS011;27892;52.378;13.122;2023-07-30T02:03:37;1.90;;;1.80;;
42226;SDS011;27892;52.378;13.122;2023-07-30T02:06:02;1.90;;;1.80;;
42226;SDS011;27892;52.378;13.122;2023-07-30T02:08:28;2.20;;;2.10;;
42226;SDS011;27892;52.378;13.122;2023-07-30T02:10:54;2.30;;;2.20;;
42226;SDS011;27892;52.378;13.122;2023-07-30T02:13:21;2.87;;;2.67;;
42226;SDS011;27892;52.378;13.122;2023-07-30T02:15:47;2.10;;;2.00;;
42226;SDS011;27892;52.378;13.122;2023-07-30T02:18:12;1.80;;;1.70;;
42226;SDS011;27892;52.378;13.122;2023-07-30T02:20:38;2.30;;;2.20;;
42226;SDS011;27892;52.378;13.122;2023-07-30T02:23:04;3.00;;;2.80;;
42226;SDS011;27892;52.378;13.122;2023-07-30T02:25:29;2.70;;;2.50;;
42226;SDS011;27892;52.378;13.122;2023-07-30T02:27:56;3.10;;;2.60;;
42226;SDS011;27892;52.378;13.122;2023-07-30T02:30:23;2.97;;;2.77;;
42226;SDS011;27892;52.378;13.122;2023-07-30T02:32:49;3.20;;;2.90;;
42226;SDS011;27892;52.378;13.122;2023-07-30T02:35:15;2.90;;;2.70;;
42226;SDS011;27892;52.378;13.122;2023-07-30T02:37:40;3.13;;;2.93;;
42226;SDS011;27892;52.378;13.122;2023-07-30T02:40:06;2.90;;;2.70;;
42226;SDS011;27892;52.378;13.122;2023-07-30T02:42:32;2.40;;;2.30;;
42226;SDS011;27892;52.378;13.122;2023-07-30T02:44:58;2.20;;;2.10;;
42226;SDS011;27892;52.378;13.122;2023-07-30T02:47:24;2.03;;;1.93;;
42226;SDS011;27892;52.378;13.122;2023-07-30T02:50:08;1.70;;;1.60;;
42226;SDS011;27892;52.378;13.122;2023-07-30T02:52:53;1.67;;;1.57;;
42226;SDS011;27892;52.378;13.122;2023-07-30T02:55:37;2.10;;;2.00;;
42226;SDS011;27892;52.378;13.122;2023-07-30T02:58:22;2.33;;;2.17;;
42226;SDS011;27892;52.378;13.122;2023-07-30T03:01:06;3.17;;;2.97;;
42226;SDS011;27892;52.378;13.122;2023-07-30T03:03:51;3.00;;;2.70;;
42226;SDS011;27892;52.378;13.122;2023-07-30T03:06:36;2.30;;;2.20;;
42226;SDS011;27892;52.378;13.122;2023-07-30T03:09:20;1.97;;;1.87;;
42226;SDS011;27892;52.378;13.122;2023-07-30T03:12:04;1.93;;;1.83;;
42226;SDS011;27892;52.378;13.122;2023-07-30T03:14:49;2.03;;;1.93;;
42226;SDS011;27892;52.378;13.122;2023-07-30T03:17:33;2.20;;;2.10;;
42226;SDS011;27892;52.378;13.122;2023-07-30T03:20:17;2.57;;;2.47;;
42226;SDS011;27892;52.378;13.122;2023-07-30T03:23:01;2.13;;;2.03;;
42226;SDS011;27892;52.378;13.122;2023-07-30T03:25:45;2.00;;;1.90;;
42226;SDS011;27892;52.378;13.122;2023-07-30T03:28:29;2.50;;;2.40;;
42226;SDS011;27892;52.378;13.122;2023-07-30T03:31:13;2.47;;;2.37;;
42226;SDS011;27892;52.378;13.122;2023-07-30T03:33:58;2.40;;;2.30;;
42226;SDS011;27892;52.378;13.122;2023-07-30T03:36:42;2.70;;;2.50;;
42226;SDS011;27892;52.378;13.122;2023-07-30T03:39:26;2.67;;;2.50;;
42226;SDS011;27892;52.378;13.122;2023-07-30T03:42:10;2.50;;;2.40;;
42226;SDS011;27892;52.378;13.122;2023-07-30T03:44:54;2.63;;;2.43;;
42226;SDS011;27892;52.378;13.122;2023-07-30T03:47:39;2.73;;;2.63;;
42226;SDS011;27892;52.378;13.122;2023-07-30T03:50:23;2.70;;;2.60;;
42226;SDS011;27892;52.378;13.122;2023-07-30T03:53:07;2.57;;;2.47;;
42226;SDS011;27892;52.378;13.122;2023-07-30T03:55:51;3.23;;;3.03;;
42226;SDS011;27892;52.378;13.122;2023-07-30T03:58:35;3.07;;;2.87;;
42226;SDS011;27892;52.378;13.122;2023-07-30T04:01:19;2.60;;;2.40;;
42226;SDS011;27892;52.378;13.122;2023-07-30T04:04:04;2.30;;;2.20;;
42226;SDS011;27892;52.378;13.122;2023-07-30T04:06:48;2.70;;;2.60;;
42226;SDS011;27892;52.378;13.122;2023-07-30T04:09:32;2.83;;;2.67;;
42226;SDS011;27892;52.378;13.122;2023-07-30T04:12:16;2.80;;;2.60;;
42226;SDS011;27892;52.378;13.122;2023-07-30T04:15:01;2.97;;;2.77;;
42226;SDS011;27892;52.378;13.122;2023-07-30T04:17:45;3.40;;;3.10;;
42226;SDS011;27892;52.378;13.122;2023-07-30T04:20:29;3.17;;;2.97;;
42226;SDS011;27892;52.378;13.122;2023-07-30T04:23:13;3.00;;;2.80;;
42226;SDS011;27892;52.378;13.122;2023-07-30T04:25:57;2.40;;;2.30;;
42226;SDS011;27892;52.378;13.122;2023-07-30T04:28:41;2.30;;;2.20;;
42226;SDS011;27892;52.378;13.122;2023-07-30T04:31:26;2.17;;;2.08;;
42226;SDS011;27892;52.378;13.122;2023-07-30T04:34:10;1.80;;;1.70;;
42226;SDS011;27892;52.378;13.122;2023-07-30T04:36:54;2.67;;;2.57;;
42226;SDS011;27892;52.378;13.122;2023-07-30T04:39:38;2.40;;;2.30;;
42226;SDS011;27892;52.378;13.122;2023-07-30T04:42:22;2.33;;;2.23;;
42226;SDS011;27892;52.378;13.122;2023-07-30T04:45:06;2.20;;;2.10;;
42226;SDS011;27892;52.378;13.122;2023-07-30T04:47:51;2.40;;;2.30;;
42226;SDS011;27892;52.378;13.122;2023-07-30T04:50:35;3.37;;;3.17;;
42226;SDS011;27892;52.378;13.122;2023-07-30T04:53:19;3.30;;;3.10;;
42226;SDS011;27892;52.378;13.122;2023-07-30T04:56:04;2.60;;;2.50;;
42226;SDS011;27892;52.378;13.122;2023-07-30T04:58:48;2.40;;;2.30;;
42226;SDS011;27892;52.378;13.122;2023-07-30T05:01:32;2.30;;;2.20;;
42226;SDS011;27892;52.378;13.122;2023-07-30T05:04:16;2.00;;;1.90;;
42226;SDS011;27892;52.378;13.122;2023-07-30T05:07:00;2.20;;;2.10;;
42226;SDS011;27892;52.378;13.122;2023-07-30T05:09:44;2.30;;;2.20;;
42226;SDS011;27892;52.378;13.122;2023-07-30T05:12:28;2.40;;;2.30;;
42226;SDS011;27892;52.378;13.122;2023-07-30T05:15:12;2.60;;;2.50;;
42226;SDS011;27892;52.378;13.122;2023-07-30T05:17:56;2.50;;;2.40;;
42226;SDS011;27892;52.378;13.122;2023-07-30T05:20:40;2.75;;;2.55;;
42226;SDS011;27892;52.378;13.122;2023-07-30T05:23:24;2.33;;;2.22;;
42226;SDS011;27892;52.378;13.122;2023-07-30T05:26:09;2.47;;;2.38;;
42226;SDS011;27892;52.378;13.122;2023-07-30T05:28:53;3.20;;;3.00;;
42226;SDS011;27892;52.378;13.122;2023-07-30T05:31:37;3.88;;;3.60;;
42226;SDS011;27892;52.378;13.122;2023-07-30T05:34:21;2.70;;;2.60;;
42226;SDS011;27892;52.378;13.122;2023-07-30T05:37:05;2.47;;;2.38;;
42226;SDS011;27892;52.378;13.122;2023-07-30T05:39:49;3.28;;;2.97;;
42226;SDS011;27892;52.378;13.122;2023-07-30T05:42:34;3.22;;;3.03;;
42226;SDS011;27892;52.378;13.122;2023-07-30T05:45:18;4.07;;;3.78;;
42226;SDS011;27892;52.378;13.122;2023-07-30T05:48:02;2.90;;;2.70;;
42226;SDS011;27892;52.378;13.122;2023-07-30T05:50:46;3.72;;;3.53;;
42226;SDS011;27892;52.378;13.122;2023-07-30T05:53:30;2.72;;;2.60;;
42226;SDS011;27892;52.378;13.122;2023-07-30T05:56:14;3.65;;;3.45;;
42226;SDS011;27892;52.378;13.122;2023-07-30T05:59:01;3.60;;;3.30;;
42226;SDS011;27892;52.378;13.122;2023-07-30T06:01:46;2.75;;;2.60;;
42226;SDS011;27892;52.378;13.122;2023-07-30T06:04:30;2.30;;;2.20;;
42226;SDS011;27892;52.378;13.122;2023-07-30T06:07:14;2.30;;;2.20;;
42226;SDS011;27892;52.378;13.122;2023-07-30T06:09:58;1.95;;;1.85;;
42226;SDS011;27892;52.378;13.122;2023-07-30T06:12:43;2.08;;;1.98;;
42226;SDS011;27892;52.378;13.122;2023-07-30T06:15:27;1.83;;;1.73;;
42226;SDS011;27892;52.378;13.122;2023-07-30T06:18:11;1.80;;;1.70;;
42226;SDS011;27892;52.378;13.122;2023-07-30T06:20:55;2.08;;;1.90;;
42226;SDS011;27892;52.378;13.122;2023-07-30T06:23:39;2.20;;;2.10;;
42226;SDS011;27892;52.378;13.122;2023-07-30T06:26:24;1.90;;;1.80;;
42226;SDS011;27892;52.378;13.122;2023-07-30T06:29:08;1.90;;;1.80;;
42226;SDS011;27892;52.378;13.122;2023-07-30T06:31:52;1.70;;;1.60;;
42226;SDS011;27892;52.378;13.122;2023-07-30T06:34:37;1.70;;;1.60;;
42226;SDS011;27892;52.378;13.122;2023-07-30T06:37:21;2.00;;;1.90;;
42226;SDS011;27892;52.378;13.122;2023-07-30T06:40:05;1.85;;;1.75;;
42226;SDS011;27892;52.378;13.122;2023-07-30T06:42:50;1.95;;;1.65;;
42226;SDS011;27892;52.378;13.122;2023-07-30T06:45:35;1.95;;;1.85;;
42226;SDS011;27892;52.378;13.122;2023-07-30T06:48:19;1.70;;;1.60;;
42226;SDS011;27892;52.378;13.122;2023-07-30T06:51:06;1.80;;;1.70;;
42226;SDS011;27892;52.378;13.122;2023-07-30T06:53:51;1.52;;;1.50;;
42226;SDS011;27892;52.378;13.122;2023-07-30T06:56:36;1.63;;;1.60;;
42226;SDS011;27892;52.378;13.122;2023-07-30T06:59:20;2.00;;;1.90;;
42226;SDS011;27892;52.378;13.122;2023-07-30T07:02:04;1.67;;;1.58;;
42226;SDS011;27892;52.378;13.122;2023-07-30T07:04:49;1.60;;;1.40;;
42226;SDS011;27892;52.378;13.122;2023-07-30T07:07:34;1.38;;;1.35;;
42226;SDS011;27892;52.378;13.122;2023-07-30T07:10:18;1.30;;;1.30;;
42226;SDS011;27892;52.378;13.122;2023-07-30T07:13:02;1.65;;;1.55;;
42226;SDS011;27892;52.378;13.122;2023-07-30T07:15:46;1.40;;;1.30;;
42226;SDS011;27892;52.378;13.122;2023-07-30T07:18:30;1.55;;;1.45;;
42226;SDS011;27892;52.378;13.122;2023-07-30T07:21:14;1.20;;;1.20;;
42226;SDS011;27892;52.378;13.122;2023-07-30T07:23:59;1.30;;;1.20;;
42226;SDS011;27892;52.378;13.122;2023-07-30T07:26:43;1.50;;;1.40;;
42226;SDS011;27892;52.378;13.122;2023-07-30T07:29:28;1.60;;;1.50;;
42226;SDS011;27892;52.378;13.122;2023-07-30T07:32:12;1.40;;;1.30;;
42226;SDS011;27892;52.378;13.122;2023-07-30T07:34:56;1.42;;;1.25;;
42226;SDS011;27892;52.378;13.122;2023-07-30T07:37:40;1.20;;;1.20;;
42226;SDS011;27892;52.378;13.122;2023-07-30T07:40:24;1.42;;;1.40;;
42226;SDS011;27892;52.378;13.122;2023-07-30T07:43:08;1.10;;;1.10;;
42226;SDS011;27892;52.378;13.122;2023-07-30T07:45:52;1.30;;;1.30;;
42226;SDS011;27892;52.378;13.122;2023-07-30T07:48:37;1.30;;;1.30;;
42226;SDS011;27892;52.378;13.122;2023-07-30T07:51:21;1.15;;;1.10;;
42226;SDS011;27892;52.378;13.122;2023-07-30T07:54:05;1.27;;;1.20;;
42226;SDS011;27892;52.378;13.122;2023-07-30T07:56:49;1.17;;;1.17;;
42226;SDS011;27892;52.378;13.122;2023-07-30T07:59:33;1.95;;;1.30;;
42226;SDS011;27892;52.378;13.122;2023-07-30T08:02:18;1.50;;;1.40;;
42226;SDS011;27892;52.378;13.122;2023-07-30T08:05:02;1.20;;;1.13;;
42226;SDS011;27892;52.378;13.122;2023-07-30T08:07:47;1.48;;;1.45;;
42226;SDS011;27892;52.378;13.122;2023-07-30T08:10:31;1.60;;;1.50;;
42226;SDS011;27892;52.378;13.122;2023-07-30T08:13:15;1.50;;;1.40;;
42226;SDS011;27892;52.378;13.122;2023-07-30T08:15:59;1.75;;;1.65;;
42226;SDS011;27892;52.378;13.122;2023-07-30T08:18:44;1.38;;;1.38;;
42226;SDS011;27892;52.378;13.122;2023-07-30T08:21:29;1.60;;;1.50;;
42226;SDS011;27892;52.378;13.122;2023-07-30T08:24:13;2.05;;;1.77;;
42226;SDS011;27892;52.378;13.122;2023-07-30T08:26:57;2.05;;;1.95;;
42226;SDS011;27892;52.378;13.122;2023-07-30T08:29:42;1.90;;;1.80;;
42226;SDS011;27892;52.378;13.122;2023-07-30T08:32:26;1.73;;;1.63;;
42226;SDS011;27892;52.378;13.122;2023-07-30T08:35:10;2.30;;;1.90;;
42226;SDS011;27892;52.378;13.122;2023-07-30T08:37:54;2.17;;;1.67;;
42226;SDS011;27892;52.378;13.122;2023-07-30T08:40:40;2.03;;;1.80;;
42226;SDS011;27892;52.378;13.122;2023-07-30T08:43:24;1.63;;;1.52;;
42226;SDS011;27892;52.378;13.122;2023-07-30T08:46:09;2.00;;;1.70;;
42226;SDS011;27892;52.378;13.122;2023-07-30T08:48:53;2.67;;;2.10;;
42226;SDS011;27892;52.378;13.122;2023-07-30T08:51:38;1.80;;;1.70;;
42226;SDS011;27892;52.378;13.122;2023-07-30T08:54:24;1.60;;;1.50;;
42226;SDS011;27892;52.378;13.122;2023-07-30T08:57:13;2.38;;;1.90;;
42226;SDS011;27892;52.378;13.122;2023-07-30T09:00:08;2.30;;;2.10;;
42226;SDS011;27892;52.378;13.122;2023-07-30T09:02:58;1.83;;;1.73;;
42226;SDS011;27892;52.378;13.122;2023-07-30T09:05:43;2.30;;;2.10;;
42226;SDS011;27892;52.378;13.122;2023-07-30T09:08:27;2.00;;;1.90;;
42226;SDS011;27892;52.378;13.122;2023-07-30T09:11:13;2.40;;;2.10;;
42226;SDS011;27892;52.378;13.122;2023-07-30T09:13:57;2.83;;;1.90;;
42226;SDS011;27892;52.378;13.122;2023-07-30T09:16:45;1.73;;;1.63;;
42226;SDS011;27892;52.378;13.122;2023-07-30T09:19:29;1.63;;;1.52;;
42226;SDS011;27892;52.378;13.122;2023-07-30T09:22:28;1.83;;;1.73;;
42226;SDS011;27892;52.378;13.122;2023-07-30T09:25:19;2.03;;;1.92;;
42226;SDS011;27892;52.378;13.122;2023-07-30T09:28:07;1.70;;;1.60;;
42226;SDS011;27892;52.378;13.122;2023-07-30T09:30:51;2.33;;;2.03;;
42226;SDS011;27892;52.378;13.122;2023-07-30T09:33:46;2.05;;;1.80;;
42226;SDS011;27892;52.378;13.122;2023-07-30T09:36:30;1.60;;;1.50;;
42226;SDS011;27892;52.378;13.122;2023-07-30T09:39:15;1.63;;;1.52;;
42226;SDS011;27892;52.378;13.122;2023-07-30T09:42:00;1.85;;;1.75;;
42226;SDS011;27892;52.378;13.122;2023-07-30T09:44:46;2.22;;;1.90;;
42226;SDS011;27892;52.378;13.122;2023-07-30T09:47:31;2.03;;;1.80;;
42226;SDS011;27892;52.378;13.122;2023-07-30T09:50:15;1.92;;;1.80;;
42226;SDS011;27892;52.378;13.122;2023-07-30T09:53:00;2.83;;;2.55;;
42226;SDS011;27892;52.378;13.122;2023-07-30T09:55:45;1.90;;;1.80;;
42226;SDS011;27892;52.378;13.122;2023-07-30T09:58:30;1.77;;;1.67;;
42226;SDS011;27892;52.378;13.122;2023-07-30T10:01:14;1.50;;;1.40;;
42226;SDS011;27892;52.378;13.122;2023-07-30T10:03:59;1.90;;;1.80;;
42226;SDS011;27892;52.378;13.122;2023-07-30T10:06:51;2.63;;;2.17;;
42226;SDS011;27892;52.378;13.122;2023-07-30T10:09:40;1.73;;;1.63;;
42226;SDS011;27892;52.378;13.122;2023-07-30T10:12:29;2.58;;;2.38;;
42226;SDS011;27892;52.378;13.122;2023-07-30T10:14:57;3.10;;;2.05;;
42226;SDS011;27892;52.378;13.122;2023-07-30T10:17:23;3.65;;;2.25;;
42226;SDS011;27892;52.378;13.122;2023-07-30T10:19:49;2.10;;;1.90;;
42226;SDS011;27892;52.378;13.122;2023-07-30T10:27:36;3.13;;;1.90;;
42226;SDS011;27892;52.378;13.122;2023-07-30T10:30:13;1.80;;;1.70;;
42226;SDS011;27892;52.378;13.122;2023-07-30T10:35:06;2.63;;;1.70;;
42226;SDS011;27892;52.378;13.122;2023-07-30T10:37:32;3.17;;;1.75;;
42226;SDS011;27892;52.378;13.122;2023-07-30T10:39:57;2.70;;;1.60;;
42226;SDS011;27892;52.378;13.122;2023-07-30T10:42:23;2.25;;;1.88;;
42226;SDS011;27892;52.378;13.122;2023-07-30T10:44:49;2.45;;;1.90;;
42226;SDS011;27892;52.378;13.122;2023-07-30T10:47:14;2.75;;;1.80;;
42226;SDS011;27892;52.378;13.122;2023-07-30T10:49:40;1.90;;;1.70;;
42226;SDS011;27892;52.378;13.122;2023-07-30T10:52:08;3.25;;;1.63;;
42226;SDS011;27892;52.378;13.122;2023-07-30T10:54:34;2.38;;;1.90;;
42226;SDS011;27892;52.378;13.122;2023-07-30T10:57:00;1.85;;;1.40;;
42226;SDS011;27892;52.378;13.122;2023-07-30T10:59:32;2.35;;;2.00;;
42226;SDS011;27892;52.378;13.122;2023-07-30T11:02:01;2.60;;;2.40;;
42226;SDS011;27892;52.378;13.122;2023-07-30T11:04:27;2.97;;;1.80;;
42226;SDS011;27892;52.378;13.122;2023-07-30T11:06:59;1.60;;;1.48;;
42226;SDS011;27892;52.378;13.122;2023-07-30T11:09:25;2.08;;;1.60;;
42226;SDS011;27892;52.378;13.122;2023-07-30T11:11:53;2.45;;;1.50;;
42226;SDS011;27892;52.378;13.122;2023-07-30T11:14:21;2.22;;;1.70;;
42226;SDS011;27892;52.378;13.122;2023-07-30T11:16:51;2.03;;;1.63;;
42226;SDS011;27892;52.378;13.122;2023-07-30T11:19:18;1.65;;;1.55;;
42226;SDS011;27892;52.378;13.122;2023-07-30T11:21:48;1.88;;;1.58;;
42226;SDS011;27892;52.378;13.122;2023-07-30T11:24:15;1.55;;;1.45;;
42226;SDS011;27892;52.378;13.122;2023-07-30T11:26:41;1.60;;;1.50;;
42226;SDS011;27892;52.378;13.122;2023-07-30T11:29:15;3.00;;;1.70;;
42226;SDS011;27892;52.378;13.122;2023-07-30T11:31:45;1.92;;;1.80;;
42226;SDS011;27892;52.378;13.122;2023-07-30T11:34:11;2.00;;;1.90;;
42226;SDS011;27892;52.378;13.122;2023-07-30T11:36:38;2.20;;;1.70;;
42226;SDS011;27892;52.378;13.122;2023-07-30T11:39:05;2.78;;;1.70;;
42226;SDS011;27892;52.378;13.122;2023-07-30T11:41:32;1.85;;;1.70;;
42226;SDS011;27892;52.378;13.122;2023-07-30T11:43:58;2.42;;;1.77;;
42226;SDS011;27892;52.378;13.122;2023-07-30T11:46:24;1.63;;;1.52;;
42226;SDS011;27892;52.378;13.122;2023-07-30T11:48:50;1.80;;;1.70;;
42226;SDS011;27892;52.378;13.122;2023-07-30T11:51:18;2.78;;;2.00;;
42226;SDS011;27892;52.378;13.122;2023-07-30T11:53:56;2.00;;;1.83;;
42226;SDS011;27892;52.378;13.122;2023-07-30T11:56:24;2.72;;;1.70;;
42226;SDS011;27892;52.378;13.122;2023-07-30T11:58:53;2.10;;;1.67;;
42226;SDS011;27892;52.378;13.122;2023-07-30T12:01:21;2.13;;;1.92;;
42226;SDS011;27892;52.378;13.122;2023-07-30T12:03:48;1.60;;;1.50;;
42226;SDS011;27892;52.378;13.122;2023-07-30T12:06:14;1.92;;;1.83;;
42226;SDS011;27892;52.378;13.122;2023-07-30T12:08:40;2.13;;;1.80;;
42226;SDS011;27892;52.378;13.122;2023-07-30T12:11:07;3.20;;;1.70;;
42226;SDS011;27892;52.378;13.122;2023-07-30T12:13:33;2.97;;;1.75;;
42226;SDS011;27892;52.378;13.122;2023-07-30T12:16:06;1.70;;;1.60;;
42226;SDS011;27892;52.378;13.122;2023-07-30T12:18:32;1.92;;;1.70;;
42226;SDS011;27892;52.378;13.122;2023-07-30T12:20:58;1.90;;;1.70;;
42226;SDS011;27892;52.378;13.122;2023-07-30T12:23:23;2.10;;;1.85;;
42226;SDS011;27892;52.378;13.122;2023-07-30T12:25:50;2.13;;;1.92;;
42226;SDS011;27892;52.378;13.122;2023-07-30T12:28:16;3.03;;;1.80;;
42226;SDS011;27892;52.378;13.122;2023-07-30T12:30:41;2.25;;;2.00;;
42226;SDS011;27892;52.378;13.122;2023-07-30T12:33:07;2.20;;;1.80;;
42226;SDS011;27892;52.378;13.122;2023-07-30T12:35:32;2.55;;;1.85;;
42226;SDS011;27892;52.378;13.122;2023-07-30T12:37:59;2.25;;;2.05;;
42226;SDS011;27892;52.378;13.122;2023-07-30T12:40:25;2.05;;;1.85;;
42226;SDS011;27892;52.378;13.122;2023-07-30T12:42:51;1.80;;;1.70;;
42226;SDS011;27892;52.378;13.122;2023-07-30T12:45:18;1.80;;;1.70;;
42226;SDS011;27892;52.378;13.122;2023-07-30T12:47:43;2.13;;;1.98;;
42226;SDS011;27892;52.378;13.122;2023-07-30T12:50:10;2.35;;;2.10;;
42226;SDS011;27892;52.378;13.122;2023-07-30T12:52:36;3.67;;;2.10;;
42226;SDS011;27892;52.378;13.122;2023-07-30T12:55:02;2.45;;;1.70;;
42226;SDS011;27892;52.378;13.122;2023-07-30T12:57:29;2.03;;;1.80;;
42226;SDS011;27892;52.378;13.122;2023-07-30T12:59:55;1.92;;;1.83;;
42226;SDS011;27892;52.378;13.122;2023-07-30T13:02:21;3.22;;;2.67;;
42226;SDS011;27892;52.378;13.122;2023-07-30T13:04:46;2.13;;;1.92;;
42226;SDS011;27892;52.378;13.122;2023-07-30T13:07:12;2.10;;;1.90;;
42226;SDS011;27892;52.378;13.122;2023-07-30T13:09:38;2.40;;;1.80;;
42226;SDS011;27892;52.378;13.122;2023-07-30T13:12:04;2.13;;;1.80;;
42226;SDS011;27892;52.378;13.122;2023-07-30T13:14:31;1.73;;;1.60;;
42226;SDS011;27892;52.378;13.122;2023-07-30T13:16:57;2.25;;;1.63;;
42226;SDS011;27892;52.378;13.122;2023-07-30T13:19:22;2.50;;;2.30;;
42226;SDS011;27892;52.378;13.122;2023-07-30T13:21:48;2.35;;;2.15;;
42226;SDS011;27892;52.378;13.122;2023-07-30T13:24:14;2.17;;;1.98;;
42226;SDS011;27892;52.378;13.122;2023-07-30T13:26:40;1.90;;;1.70;;
42226;SDS011;27892;52.378;13.122;2023-07-30T13:29:06;1.80;;;1.70;;
42226;SDS011;27892;52.378;13.122;2023-07-30T13:31:31;2.03;;;1.80;;
42226;SDS011;27892;52.378;13.122;2023-07-30T13:33:57;2.95;;;1.95;;
42226;SDS011;27892;52.378;13.122;2023-07-30T13:36:23;1.80;;;1.70;;
42226;SDS011;27892;52.378;13.122;2023-07-30T13:38:49;1.60;;;1.50;;
42226;SDS011;27892;52.378;13.122;2023-07-30T13:41:14;1.52;;;1.42;;
42226;SDS011;27892;52.378;13.122;2023-07-30T13:43:40;2.45;;;1.40;;
42226;SDS011;27892;52.378;13.122;2023-07-30T13:46:06;1.67;;;1.48;;
42226;SDS011;27892;52.378;13.122;2023-07-30T13:48:31;1.63;;;1.40;;
42226;SDS011;27892;52.378;13.122;2023-07-30T13:50:57;1.55;;;1.20;;
42226;SDS011;27892;52.378;13.122;2023-07-30T13:53:23;1.48;;;1.30;;
42226;SDS011;27892;52.378;13.122;2023-07-30T13:55:49;1.58;;;1.20;;
42226;SDS011;27892;52.378;13.122;2023-07-30T13:58:14;1.60;;;1.30;;
42226;SDS011;27892;52.378;13.122;2023-07-30T14:00:41;1.20;;;1.10;;
42226;SDS011;27892;52.378;13.122;2023-07-30T14:03:10;1.50;;;1.40;;
42226;SDS011;27892;52.378;13.122;2023-07-30T14:05:37;1.58;;;1.48;;
42226;SDS011;27892;52.378;13.122;2023-07-30T14:08:03;2.60;;;1.40;;
42226;SDS011;27892;52.378;13.122;2023-07-30T14:10:29;1.58;;;1.48;;
42226;SDS011;27892;52.378;13.122;2023-07-30T14:12:55;2.17;;;1.98;;
42226;SDS011;27892;52.378;13.122;2023-07-30T14:15:21;2.90;;;2.10;;
42226;SDS011;27892;52.378;13.122;2023-07-30T14:17:47;2.00;;;1.67;;
42226;SDS011;27892;52.378;13.122;2023-07-30T14:20:13;1.40;;;1.30;;
42226;SDS011;27892;52.378;13.122;2023-07-30T14:22:39;1.40;;;1.30;;
42226;SDS011;27892;52.378;13.122;2023-07-30T14:25:05;2.47;;;1.67;;
42226;SDS011;27892;52.378;13.122;2023-07-30T14:27:31;1.40;;;1.30;;
42226;SDS011;27892;52.378;13.122;2023-07-30T14:29:57;1.38;;;1.27;;
42226;SDS011;27892;52.378;13.122;2023-07-30T14:32:23;1.85;;;1.55;;
42226;SDS011;27892;52.378;13.122;2023-07-30T14:34:49;1.38;;;1.30;;
42226;SDS011;27892;52.378;13.122;2023-07-30T14:37:15;2.65;;;1.65;;
42226;SDS011;27892;52.378;13.122;2023-07-30T14:39:41;1.40;;;1.20;;
42226;SDS011;27892;52.378;13.122;2023-07-30T14:42:07;2.88;;;1.50;;
42226;SDS011;27892;52.378;13.122;2023-07-30T14:44:34;2.10;;;1.90;;
42226;SDS011;27892;52.378;13.122;2023-07-30T14:46:59;5.43;;;4.00;;
42226;SDS011;27892;52.378;13.122;2023-07-30T14:49:28;2.78;;;2.58;;
42226;SDS011;27892;52.378;13.122;2023-07-30T14:51:54;1.60;;;1.50;;
42226;SDS011;27892;52.378;13.122;2023-07-30T14:54:20;2.30;;;1.80;;
42226;SDS011;27892;52.378;13.122;2023-07-30T14:56:46;1.70;;;1.60;;
42226;SDS011;27892;52.378;13.122;2023-07-30T14:59:12;1.85;;;1.60;;
42226;SDS011;27892;52.378;13.122;2023-07-30T15:01:37;1.83;;;1.73;;
42226;SDS011;27892;52.378;13.122;2023-07-30T15:04:03;1.73;;;1.63;;
42226;SDS011;27892;52.378;13.122;2023-07-30T15:06:29;1.88;;;1.73;;
42226;SDS011;27892;52.378;13.122;2023-07-30T15:08:55;1.65;;;1.52;;
42226;SDS011;27892;52.378;13.122;2023-07-30T15:11:22;2.58;;;1.70;;
42226;SDS011;27892;52.378;13.122;2023-07-30T15:13:48;1.60;;;1.50;;
42226;SDS011;27892;52.378;13.122;2023-07-30T15:16:15;2.10;;;1.70;;
42226;SDS011;27892;52.378;13.122;2023-07-30T15:18:43;2.50;;;1.70;;
42226;SDS011;27892;52.378;13.122;2023-07-30T15:21:09;1.85;;;1.67;;
42226;SDS011;27892;52.378;13.122;2023-07-30T15:23:36;2.35;;;1.90;;
42226;SDS011;27892;52.378;13.122;2023-07-30T15:26:03;1.98;;;1.70;;